Time;durP1;ratioP1;P1;durP2;ratioP2;P2;SDS_P1;SDS_P2;PMS_P1;PMS_P2;Temp;Humidity;BMP_temperature;BMP_pressure;BME280_temperature;BME280_humidity;BME280_pressure;Samples;Min_cycle;Max_cycle;Signal;HPM_P1;HPM_P2
2021/07/15 00:02:20;;;;;;;;;4.75;4.75;;;;;22.34;57.38;101254.81;5038735;28;52551;-58
2021/07/15 00:04:46;;;;;;;;;4.00;4.00;;;;;22.32;57.44;101254.78;5051419;28;45349;-58
2021/07/15 00:07:12;;;;;;;;;6.00;4.25;;;;;22.33;57.37;101253.88;5056804;28;57397;-58
2021/07/15 00:09:38;;;;;;;;;7.50;6.25;;;;;22.33;57.46;101251.25;5073064;28;45591;-58
2021/07/15 00:12:06;;;;;;;;;7.75;5.50;;;;;22.32;57.33;101252.13;5079202;28;47140;-58
2021/07/15 00:14:31;;;;;;;;;5.00;4.50;;;;;22.33;57.10;101250.38;5063462;28;45330;-58
2021/07/15 00:16:58;;;;;;;;;5.25;5.25;;;;;22.32;57.29;101249.50;5039150;28;62057;-58
2021/07/15 00:19:24;;;;;;;;;4.75;4.75;;;;;22.33;57.04;101253.88;5038577;28;45704;-58
2021/07/15 00:21:49;;;;;;;;;5.50;4.25;;;;;22.33;57.18;101255.69;5038718;28;45468;-58
2021/07/15 00:24:17;;;;;;;;;5.00;5.00;;;;;22.32;57.09;101253.91;5041095;28;45731;-58
2021/07/15 00:26:43;;;;;;;;;5.00;5.00;;;;;22.29;57.17;101248.69;5058636;28;46164;-58
2021/07/15 00:29:09;;;;;;;;;8.50;5.50;;;;;22.32;57.25;101251.28;5056942;28;45413;-58
2021/07/15 00:31:34;;;;;;;;;3.50;3.50;;;;;22.32;57.23;101256.56;5058700;28;50659;-58
2021/07/15 00:33:59;;;;;;;;;7.50;6.00;;;;;22.31;57.26;101261.00;5058739;28;45638;-58
2021/07/15 00:36:25;;;;;;;;;8.00;8.00;;;;;22.31;57.32;101268.94;5040324;28;55859;-58
2021/07/15 00:38:50;;;;;;;;;6.00;5.00;;;;;22.32;57.46;101259.22;5038817;28;60129;-58
2021/07/15 00:41:15;;;;;;;;;7.00;5.00;;;;;22.31;57.29;101262.75;5038379;28;47401;-58
2021/07/15 00:43:41;;;;;;;;;6.25;6.00;;;;;22.31;57.32;101265.41;5037154;28;45341;-58
2021/07/15 00:46:06;;;;;;;;;8.00;6.25;;;;;22.31;57.20;101276.91;5037922;28;56898;-58
2021/07/15 00:48:32;;;;;;;;;5.25;5.25;;;;;22.31;57.26;101271.59;5038933;28;52369;-58
2021/07/15 00:50:57;;;;;;;;;4.75;4.75;;;;;22.26;57.44;101273.44;5038547;28;45508;-58
2021/07/15 00:53:22;;;;;;;;;7.00;6.00;;;;;22.31;57.10;101281.28;5020246;28;51080;-58
2021/07/15 00:55:48;;;;;;;;;6.00;4.50;;;;;22.30;57.15;101282.22;5038229;28;46131;-58
2021/07/15 00:58:15;;;;;;;;;5.25;5.25;;;;;22.30;57.08;101274.28;5038131;28;45338;-58
2021/07/15 01:00:42;;;;;;;;;6.75;5.00;;;;;22.29;57.29;101273.38;5039178;28;45357;-58
2021/07/15 01:03:08;;;;;;;;;4.75;4.75;;;;;22.29;57.12;101278.69;5038421;28;45492;-58
2021/07/15 01:05:37;;;;;;;;;5.50;5.50;;;;;22.28;57.21;101276.91;5039122;28;45925;-58
2021/07/15 01:08:04;;;;;;;;;6.00;6.00;;;;;22.28;56.94;101276.91;5058376;28;45423;-58
2021/07/15 01:10:31;;;;;;;;;6.75;4.75;;;;;22.29;57.10;101277.81;5058936;28;45484;-58
2021/07/15 01:13:24;;;;;;;;;6.50;6.00;;;;;22.30;57.12;101279.56;5030094;28;45492;-58
2021/07/15 01:16:26;;;;;;;;;4.25;4.25;;;;;22.28;57.03;101279.56;5037719;28;45492;-58
2021/07/15 01:19:23;;;;;;;;;5.50;5.00;;;;;22.28;57.21;101276.06;5037880;28;45249;-58
2021/07/15 01:22:24;;;;;;;;;5.50;5.00;;;;;22.28;56.90;101281.34;5038908;28;45613;-58
2021/07/15 01:25:27;;;;;;;;;5.00;4.25;;;;;22.26;57.22;101286.69;5038005;28;45353;-58
2021/07/15 01:28:20;;;;;;;;;5.00;5.00;;;;;22.27;57.14;101279.59;5037648;28;46262;-58
2021/07/15 01:30:47;;;;;;;;;5.50;5.50;;;;;22.27;57.20;101279.59;5038176;28;45587;-58
2021/07/15 01:33:15;;;;;;;;;5.00;5.00;;;;;22.27;57.34;101290.19;5003639;28;45854;-58
2021/07/15 01:36:01;;;;;;;;;6.00;5.00;;;;;22.25;57.29;101287.56;5037676;28;45421;-58
2021/07/15 01:38:31;;;;;;;;;7.00;5.00;;;;;22.26;57.19;101294.63;5019594;28;46237;-58
2021/07/15 01:41:14;;;;;;;;;4.25;4.25;;;;;22.25;57.21;101282.28;5037376;28;45615;-58
2021/07/15 01:43:44;;;;;;;;;4.00;4.00;;;;;22.25;57.02;101279.63;5022988;28;45461;-58
2021/07/15 01:46:10;;;;;;;;;4.75;4.75;;;;;22.25;57.23;101276.97;5040058;28;45441;-58
2021/07/15 01:48:35;;;;;;;;;4.00;4.00;;;;;22.25;56.99;101278.75;5019033;28;45979;-58
2021/07/15 01:51:01;;;;;;;;;6.00;5.00;;;;;22.26;57.17;101277.88;5002724;28;45455;-58
2021/07/15 01:53:26;;;;;;;;;5.25;4.50;;;;;22.26;57.09;101280.53;5038627;28;45586;-58
2021/07/15 01:55:52;;;;;;;;;5.00;5.00;;;;;22.23;56.92;101276.13;5018731;28;51532;-58
2021/07/15 01:58:17;;;;;;;;;5.25;3.75;;;;;22.25;57.10;101278.75;5002860;28;45463;-58
2021/07/15 02:00:43;;;;;;;;;6.25;4.00;;;;;22.24;56.98;101275.22;5019841;28;57438;-58
2021/07/15 02:03:08;;;;;;;;;6.50;4.50;;;;;22.24;57.25;101272.56;5004807;28;45909;-58
2021/07/15 02:05:34;;;;;;;;;5.25;4.00;;;;;22.25;56.98;101270.81;5019680;28;45574;-58
2021/07/15 02:08:00;;;;;;;;;8.00;7.00;;;;;22.25;57.27;101276.13;5022402;28;63571;-58
2021/07/15 02:10:26;;;;;;;;;6.00;4.50;;;;;22.26;57.44;101273.44;5039377;28;45471;-58
2021/07/15 02:12:51;;;;;;;;;4.00;4.00;;;;;22.26;57.12;101275.22;5057407;28;45748;-58
2021/07/15 02:15:17;;;;;;;;;5.25;5.25;;;;;22.24;57.20;101277.00;5033074;28;45446;-58
2021/07/15 02:17:43;;;;;;;;;5.25;4.00;;;;;22.23;57.04;101277.91;5056721;28;55495;-58
2021/07/15 02:20:10;;;;;;;;;6.50;6.00;;;;;22.22;57.26;101269.09;5038696;28;45588;-58
2021/07/15 02:22:35;;;;;;;;;5.00;5.00;;;;;22.22;57.00;101270.88;5022610;28;45383;-58
2021/07/15 02:25:00;;;;;;;;;7.50;6.00;;;;;22.23;57.16;101270.84;5037514;28;45417;-58
2021/07/15 02:27:26;;;;;;;;;5.50;4.75;;;;;22.23;57.09;101267.31;5021943;28;50534;-58
2021/07/15 02:29:51;;;;;;;;;6.00;5.25;;;;;22.22;57.60;101271.72;5024732;28;45359;-58
2021/07/15 02:32:17;;;;;;;;;5.50;5.00;;;;;22.23;57.19;101272.59;5018805;28;52677;-58
2021/07/15 02:34:51;;;;;;;;;6.00;6.00;;;;;22.23;57.17;101265.56;5018795;28;49091;-58
2021/07/15 02:37:17;;;;;;;;;6.00;5.00;;;;;22.22;57.14;101266.44;5018955;28;46199;-58
2021/07/15 02:39:42;;;;;;;;;5.00;4.25;;;;;22.23;57.15;101262.00;5019799;28;45306;-58
2021/07/15 02:42:08;;;;;;;;;4.50;4.50;;;;;22.21;57.24;101256.75;5036405;28;56404;-58
2021/07/15 02:44:35;;;;;;;;;5.50;4.50;;;;;22.19;57.31;101248.81;5002238;28;47957;-58
2021/07/15 02:47:00;;;;;;;;;7.00;5.50;;;;;22.20;57.49;101249.69;5018710;28;47152;-58
2021/07/15 02:49:25;;;;;;;;;8.00;6.75;;;;;22.21;57.51;101254.09;5037230;28;58024;-58
2021/07/15 02:51:51;;;;;;;;;6.00;5.00;;;;;22.20;57.39;101247.03;5036332;28;45594;-58
2021/07/15 02:54:16;;;;;;;;;6.75;5.50;;;;;22.20;57.27;101247.03;5036343;28;50843;-58
2021/07/15 02:57:23;;;;;;;;;6.00;6.00;;;;;22.19;57.21;101253.25;5018645;28;46960;-58
2021/07/15 02:59:57;;;;;;;;;7.00;5.75;;;;;22.19;56.86;101248.81;4959304;28;45526;-58
2021/07/15 03:02:31;;;;;;;;;6.00;5.25;;;;;22.19;57.14;101254.13;4974619;28;45437;-58
2021/07/15 03:04:59;;;;;;;;;5.00;5.00;;;;;22.19;57.17;101247.97;4958950;28;45428;-58
2021/07/15 03:07:24;;;;;;;;;5.00;5.00;;;;;22.17;57.35;101250.63;4976033;28;45442;-58
2021/07/15 03:09:50;;;;;;;;;5.75;4.00;;;;;22.18;57.14;101243.56;4955837;28;45464;-58
2021/07/15 03:12:19;;;;;;;;;5.25;4.25;;;;;22.16;57.25;101240.94;4942324;28;50929;-58
2021/07/15 03:14:44;;;;;;;;;4.00;4.00;;;;;22.19;57.34;101242.66;4959013;28;45530;-58
2021/07/15 03:17:12;;;;;;;;;7.00;7.00;;;;;22.19;57.30;101242.66;4942252;28;46106;-58
2021/07/15 03:19:40;;;;;;;;;8.00;6.00;;;;;22.18;57.25;101247.06;4942448;28;45487;-58
2021/07/15 03:22:06;;;;;;;;;6.50;5.50;;;;;22.17;57.27;101248.00;4943672;28;45583;-58
2021/07/15 03:24:33;;;;;;;;;5.25;5.25;;;;;22.17;57.39;101255.94;4942532;28;45586;-58
2021/07/15 03:26:58;;;;;;;;;5.75;4.75;;;;;22.18;57.38;101259.44;4926241;28;47114;-58
2021/07/15 03:29:24;;;;;;;;;6.50;5.25;;;;;22.18;57.13;101256.78;4942361;28;45429;-58
2021/07/15 03:31:49;;;;;;;;;5.00;4.25;;;;;22.17;57.31;101253.28;4959432;28;45459;-58
2021/07/15 03:34:15;;;;;;;;;6.00;4.00;;;;;22.17;56.83;101258.56;4959780;28;45498;-58
2021/07/15 03:36:46;;;;;;;;;7.75;4.25;;;;;22.17;57.56;101260.34;5021745;28;45650;-58
2021/07/15 03:39:12;;;;;;;;;5.00;5.00;;;;;22.17;57.11;101255.03;5022145;28;45729;-58
2021/07/15 03:41:38;;;;;;;;;6.00;4.75;;;;;22.17;57.23;101255.03;5011666;28;58397;-58
2021/07/15 03:44:03;;;;;;;;;7.75;5.25;;;;;22.16;57.32;101253.28;5041715;28;45446;-58
2021/07/15 03:46:29;;;;;;;;;6.00;5.00;;;;;22.16;57.39;101255.94;5024765;28;46888;-58
2021/07/15 03:48:54;;;;;;;;;4.50;4.25;;;;;22.16;57.31;101258.56;5041204;28;45466;-58
2021/07/15 03:51:20;;;;;;;;;6.00;5.00;;;;;22.16;57.35;101255.94;5039078;28;45351;-58
2021/07/15 03:53:45;;;;;;;;;4.75;4.75;;;;;22.10;57.44;101248.97;5021418;28;45318;-58
2021/07/15 03:56:12;;;;;;;;;5.25;4.00;;;;;22.15;57.14;101252.41;5004823;28;46362;-58
2021/07/15 03:58:41;;;;;;;;;5.00;5.00;;;;;22.16;57.32;101253.28;5039158;28;45596;-58
2021/07/15 04:01:08;;;;;;;;;5.75;5.00;;;;;22.15;57.48;101241.81;5039115;28;45468;-58
2021/07/15 04:03:33;;;;;;;;;5.00;4.00;;;;;22.15;57.46;101249.78;5022680;28;45427;-58
2021/07/15 04:05:59;;;;;;;;;5.75;5.75;;;;;22.14;57.54;101253.31;5021020;28;46899;-58
2021/07/15 04:08:24;;;;;;;;;5.25;4.25;;;;;22.14;56.78;101253.31;5026357;28;57468;-58
2021/07/15 04:10:51;;;;;;;;;5.25;5.25;;;;;22.14;57.26;101255.97;5044599;28;45323;-58
2021/07/15 04:13:17;;;;;;;;;6.50;5.25;;;;;22.15;57.23;101256.84;5034287;28;45615;-58
2021/07/15 04:15:51;;;;;;;;;7.75;6.00;;;;;22.15;57.13;101254.22;5020542;28;61070;-58
2021/07/15 04:18:17;;;;;;;;;6.00;5.00;;;;;22.14;57.39;101241.84;5038649;28;45587;-58
2021/07/15 04:20:42;;;;;;;;;6.00;5.00;;;;;22.14;57.21;101252.44;5021056;28;45517;-58
2021/07/15 04:23:08;;;;;;;;;5.75;5.00;;;;;22.14;56.98;101255.97;5010092;28;45608;-58
2021/07/15 04:25:33;;;;;;;;;6.75;5.25;;;;;22.14;57.41;101260.38;5019982;28;63122;-58
2021/07/15 04:27:59;;;;;;;;;6.00;5.00;;;;;22.14;57.37;101261.25;5004379;28;45320;-58
2021/07/15 04:30:24;;;;;;;;;6.00;5.00;;;;;22.13;57.35;101263.94;5020969;28;45346;-58
2021/07/15 04:32:57;;;;;;;;;5.00;5.00;;;;;22.14;57.26;101266.53;5007092;28;45328;-58
2021/07/15 04:35:22;;;;;;;;;4.00;4.00;;;;;22.13;57.53;101272.75;5058739;28;45479;-58
2021/07/15 04:37:48;;;;;;;;;4.75;4.75;;;;;22.13;57.20;101269.22;5043132;28;54884;-58
2021/07/15 04:40:16;;;;;;;;;6.00;6.00;;;;;22.12;57.33;101265.72;5038271;28;45324;-58
2021/07/15 04:42:42;;;;;;;;;4.25;4.25;;;;;22.13;57.25;101264.81;5038856;28;45317;-58
2021/07/15 04:45:09;;;;;;;;;5.00;5.00;;;;;22.12;57.33;101265.72;5021418;28;45503;-58
2021/07/15 04:47:34;;;;;;;;;6.50;5.50;;;;;22.13;57.47;101269.22;5020271;28;45562;-58
2021/07/15 04:49:59;;;;;;;;;3.00;3.00;;;;;22.12;57.32;101275.41;5020152;28;51651;-58
2021/07/15 04:52:25;;;;;;;;;6.25;5.75;;;;;22.13;57.26;101277.16;5037973;28;50669;-58
2021/07/15 04:54:50;;;;;;;;;4.25;4.25;;;;;22.13;57.22;101277.16;5020728;28;56733;-58
2021/07/15 04:57:16;;;;;;;;;5.00;5.00;;;;;22.12;57.31;101278.94;5024628;28;45386;-58
2021/07/15 04:59:41;;;;;;;;;5.50;4.00;;;;;22.13;57.12;101280.72;5023156;28;51421;-58
2021/07/15 05:02:06;;;;;;;;;5.75;4.00;;;;;22.13;57.29;101282.47;5058395;28;45404;-58
2021/07/15 05:04:33;;;;;;;;;5.00;5.00;;;;;22.12;57.46;101281.59;5056342;28;46374;-59
2021/07/15 05:06:58;;;;;;;;;5.50;5.50;;;;;22.12;57.17;101278.06;5058192;28;45506;-58
2021/07/15 05:09:23;;;;;;;;;6.00;6.00;;;;;22.12;57.30;101278.06;5038885;28;45475;-58
2021/07/15 05:11:49;;;;;;;;;5.00;5.00;;;;;22.12;57.65;101278.94;5038045;28;45459;-58
2021/07/15 05:14:14;;;;;;;;;5.25;5.00;;;;;22.11;56.97;101282.50;5050384;28;45796;-58
2021/07/15 05:16:40;;;;;;;;;5.00;4.00;;;;;22.13;57.12;101279.81;5017333;28;54792;-58
2021/07/15 05:19:05;;;;;;;;;3.75;3.75;;;;;22.05;57.21;101261.41;5040648;28;51418;-58
2021/07/15 05:21:30;;;;;;;;;4.50;4.50;;;;;22.11;57.09;101279.84;5057269;28;52354;-58
2021/07/15 05:23:56;;;;;;;;;6.75;5.75;;;;;22.12;57.26;101275.41;5037724;28;63465;-58
2021/07/15 05:26:21;;;;;;;;;4.50;3.00;;;;;22.12;57.32;101278.06;5040680;28;55029;-58
2021/07/15 05:28:47;;;;;;;;;7.25;7.00;;;;;22.10;56.68;101280.72;5037373;28;50383;-59
2021/07/15 05:31:12;;;;;;;;;5.00;5.00;;;;;22.05;56.42;101279.06;5041597;28;45353;-60
2021/07/15 05:33:37;;;;;;;;;6.00;5.00;;;;;21.99;55.98;101282.66;5048495;28;51500;-59
2021/07/15 05:36:03;;;;;;;;;4.25;4.25;;;;;21.94;56.14;101285.41;5036946;28;56160;-59
2021/07/15 05:38:28;;;;;;;;;6.00;6.00;;;;;21.91;56.15;101284.56;5038622;28;45452;-59
2021/07/15 05:40:54;;;;;;;;;5.75;5.00;;;;;21.90;56.21;101288.97;5055515;28;48115;-60
2021/07/15 05:43:19;;;;;;;;;7.50;5.50;;;;;21.90;56.62;101294.28;5050771;28;54026;-59
2021/07/15 05:45:45;;;;;;;;;5.00;5.00;;;;;21.91;56.82;101290.72;5043175;28;50284;-60
2021/07/15 05:48:10;;;;;;;;;5.50;4.50;;;;;21.89;56.50;101291.66;5053037;28;45580;-60
2021/07/15 05:50:35;;;;;;;;;5.00;5.00;;;;;21.94;56.69;101290.69;5045681;28;45395;-60
2021/07/15 05:53:01;;;;;;;;;4.50;4.50;;;;;21.97;56.76;101295.06;5051707;28;45980;-59
2021/07/15 05:55:26;;;;;;;;;4.00;4.00;;;;;21.97;57.07;101293.28;5040270;28;45400;-59
2021/07/15 05:57:52;;;;;;;;;4.00;4.00;;;;;22.01;57.02;101297.63;5049769;28;49377;-59
2021/07/15 06:00:17;;;;;;;;;5.50;4.25;;;;;22.04;57.03;101302.00;5057407;28;45320;-59
2021/07/15 06:02:43;;;;;;;;;6.75;4.50;;;;;22.05;57.07;101297.59;5057011;28;46170;-59
2021/07/15 06:05:09;;;;;;;;;5.25;3.75;;;;;22.07;57.25;101301.97;5038646;28;45483;-70
2021/07/15 06:07:35;;;;;;;;;4.00;4.00;;;;;22.08;57.00;101302.81;5048312;28;45551;-60
2021/07/15 06:10:01;;;;;;;;;5.00;4.00;;;;;22.09;56.93;101304.59;5068463;28;45468;-60
2021/07/15 06:12:26;;;;;;;;;6.00;5.00;;;;;22.10;57.14;101311.63;5076850;28;59624;-60
2021/07/15 06:14:52;;;;;;;;;5.00;3.75;;;;;22.10;57.07;101301.91;5076992;28;55563;-60
2021/07/15 06:17:17;;;;;;;;;5.00;5.00;;;;;22.12;57.35;101304.53;5076811;28;52804;-60
2021/07/15 06:19:42;;;;;;;;;4.00;4.00;;;;;22.11;57.54;101300.16;5077562;28;45370;-60
2021/07/15 06:22:08;;;;;;;;;4.50;4.50;;;;;22.13;57.27;101306.28;5077278;28;45921;-61
2021/07/15 06:24:33;;;;;;;;;6.50;5.75;;;;;22.10;56.98;101298.41;5077007;28;45388;-60
2021/07/15 06:26:59;;;;;;;;;5.00;5.00;;;;;22.11;57.09;101308.09;5077104;28;45864;-61
2021/07/15 06:29:26;;;;;;;;;4.25;4.25;;;;;22.12;56.97;101304.53;5076934;28;50072;-61
2021/07/15 06:31:51;;;;;;;;;5.00;4.25;;;;;22.11;57.34;101311.59;5076971;28;46426;-60
2021/07/15 06:34:16;;;;;;;;;5.00;3.75;;;;;22.11;57.05;101311.59;5077085;28;45472;-60
2021/07/15 06:36:43;;;;;;;;;5.50;5.50;;;;;22.12;57.17;101315.13;5077048;28;50800;-61
2021/07/15 06:39:08;;;;;;;;;5.75;5.00;;;;;22.13;57.16;101322.16;5042479;28;45578;-60
2021/07/15 06:41:33;;;;;;;;;4.75;4.75;;;;;22.13;57.05;101311.59;5076520;28;58444;-60
2021/07/15 06:43:59;;;;;;;;;5.00;4.00;;;;;22.12;57.10;101315.13;5080212;28;60450;-61
2021/07/15 06:46:27;;;;;;;;;4.75;4.00;;;;;22.11;57.19;101316.03;5080308;28;51226;-62
2021/07/15 06:48:52;;;;;;;;;6.00;4.75;;;;;22.11;57.04;101316.03;5080344;28;45305;-60
2021/07/15 06:51:19;;;;;;;;;7.75;6.25;;;;;22.11;57.18;101324.84;5080282;28;45818;-61
2021/07/15 06:53:45;;;;;;;;;7.00;4.25;;;;;22.13;57.25;101327.47;5046141;28;45226;-61
2021/07/15 06:56:11;;;;;;;;;5.00;5.00;;;;;22.12;57.02;101321.31;5080614;28;45400;-61
2021/07/15 06:58:36;;;;;;;;;5.75;4.00;;;;;22.12;56.90;101325.72;5080591;28;45503;-61
2021/07/15 07:01:01;;;;;;;;;5.00;5.00;;;;;22.13;56.86;101322.16;5079859;28;57101;-61
2021/07/15 07:03:27;;;;;;;;;5.00;5.00;;;;;22.12;57.09;101316.00;5079831;28;55941;-61
2021/07/15 07:05:53;;;;;;;;;5.00;5.00;;;;;22.13;57.01;101322.16;5080444;28;45495;-60
2021/07/15 07:08:18;;;;;;;;;4.50;4.50;;;;;22.12;57.03;101321.31;5079905;28;45552;-60
2021/07/15 07:10:43;;;;;;;;;5.25;5.25;;;;;22.13;57.16;101324.81;5079367;28;63638;-61
2021/07/15 07:13:09;;;;;;;;;4.25;4.25;;;;;22.13;56.89;101322.16;5079546;28;58201;-60
2021/07/15 07:15:34;;;;;;;;;5.50;5.00;;;;;22.12;56.92;101320.41;5079867;28;49671;-61
2021/07/15 07:18:00;;;;;;;;;4.00;4.00;;;;;22.13;57.23;101323.06;5079827;28;52121;-60
2021/07/15 07:20:25;;;;;;;;;5.00;4.75;;;;;22.13;57.40;101315.13;5080047;28;47022;-60
2021/07/15 07:22:50;;;;;;;;;3.25;3.25;;;;;22.13;57.04;101317.78;5080016;28;45377;-61
2021/07/15 07:25:16;;;;;;;;;5.25;4.25;;;;;22.14;57.24;101318.63;5080010;28;45471;-60
2021/07/15 07:27:41;;;;;;;;;4.00;4.00;;;;;22.13;57.19;101328.38;5080091;28;45463;-61
2021/07/15 07:30:08;;;;;;;;;4.50;3.50;;;;;22.14;57.10;101318.63;5079371;28;46084;-61
2021/07/15 07:32:33;;;;;;;;;4.00;4.00;;;;;22.14;57.22;101323.94;5079748;28;45656;-61
2021/07/15 07:34:59;;;;;;;;;4.00;4.00;;;;;22.15;57.29;101325.69;5079474;28;54745;-61
2021/07/15 07:37:24;;;;;;;;;4.00;4.00;;;;;22.10;57.37;101316.94;5080231;28;45372;-61
2021/07/15 07:39:51;;;;;;;;;6.00;4.50;;;;;22.13;57.25;101320.41;5079589;28;47323;-61
2021/07/15 07:42:16;;;;;;;;;5.50;4.00;;;;;22.01;57.40;101292.34;5079404;28;45507;-61
2021/07/15 07:44:41;;;;;;;;;6.75;5.00;;;;;22.14;57.33;101318.63;5079376;28;49007;-60
2021/07/15 07:47:07;;;;;;;;;4.00;4.00;;;;;22.15;57.23;101315.09;5079084;28;53514;-60
2021/07/15 07:49:32;;;;;;;;;5.00;3.50;;;;;22.15;56.94;101315.09;5079431;28;45752;-60
2021/07/15 07:51:58;;;;;;;;;4.00;4.00;;;;;22.17;57.16;101323.88;5079451;28;45484;-61
2021/07/15 07:54:23;;;;;;;;;4.50;4.50;;;;;22.15;57.08;101318.59;5078869;28;47430;-61
2021/07/15 07:56:49;;;;;;;;;3.25;3.25;;;;;22.17;57.21;101323.88;5079582;28;45308;-60
2021/07/15 07:59:14;;;;;;;;;3.25;3.00;;;;;22.15;57.16;101320.41;5078856;28;58582;-61
2021/07/15 08:01:40;;;;;;;;;5.00;4.00;;;;;22.16;57.36;101322.13;5079371;28;45474;-60
2021/07/15 08:04:05;;;;;;;;;3.50;3.50;;;;;22.16;56.94;101317.72;5072526;28;45350;-61
2021/07/15 08:06:34;;;;;;;;;3.75;3.00;;;;;22.17;57.06;101321.22;5059070;28;45472;-61
2021/07/15 08:09:03;;;;;;;;;3.25;3.25;;;;;22.17;57.56;101313.28;5064995;28;46515;-60
2021/07/15 08:11:29;;;;;;;;;4.50;4.50;;;;;22.16;57.34;101309.78;5079002;28;45522;-61
2021/07/15 08:13:54;;;;;;;;;4.25;4.25;;;;;22.16;57.25;101312.44;5079411;28;45438;-60
2021/07/15 08:16:19;;;;;;;;;3.50;3.50;;;;;22.18;57.09;101320.34;5079501;28;45431;-60
2021/07/15 08:18:45;;;;;;;;;4.75;4.25;;;;;22.17;57.28;101323.88;5078597;28;57885;-60
2021/07/15 08:21:10;;;;;;;;;5.00;5.00;;;;;22.18;57.12;101321.19;5076524;28;56217;-60
2021/07/15 08:23:36;;;;;;;;;3.75;3.75;;;;;22.16;56.88;101308.88;5058262;28;54920;-61
2021/07/15 08:26:01;;;;;;;;;4.25;3.75;;;;;22.17;56.75;101318.59;5058837;28;45443;-61
2021/07/15 08:28:26;;;;;;;;;4.00;3.00;;;;;22.17;57.37;101319.47;5058431;28;46099;-61
2021/07/15 08:30:52;;;;;;;;;3.75;3.75;;;;;22.18;57.26;101315.91;5058070;28;56054;-61
2021/07/15 08:33:17;;;;;;;;;4.00;4.00;;;;;22.19;57.02;101316.81;5057771;28;49444;-61
2021/07/15 08:35:42;;;;;;;;;3.00;3.00;;;;;22.18;57.32;101310.63;5058986;28;45290;-61
2021/07/15 08:38:10;;;;;;;;;3.00;3.00;;;;;22.19;57.11;101316.81;5058420;28;45379;-60
2021/07/15 08:40:36;;;;;;;;;4.00;4.00;;;;;22.19;57.21;101308.84;5058419;28;45461;-60
2021/07/15 08:43:01;;;;;;;;;4.75;3.25;;;;;22.18;57.34;101310.63;5057988;28;52325;-61
2021/07/15 08:45:27;;;;;;;;;3.50;3.00;;;;;22.19;57.09;101306.22;5040675;28;45378;-60
2021/07/15 08:47:52;;;;;;;;;4.00;4.00;;;;;22.19;57.12;101307.06;5058045;28;46909;-61
2021/07/15 08:50:18;;;;;;;;;4.50;3.50;;;;;22.19;57.19;101314.16;5023769;28;45497;-60
2021/07/15 08:52:45;;;;;;;;;4.00;4.00;;;;;22.20;57.01;101311.47;5058486;28;45428;-60
2021/07/15 08:57:37;;;;;;;;;3.00;3.00;;;;;22.21;57.28;101309.69;5057848;28;45515;-61
2021/07/15 09:00:06;;;;;;;;;3.00;3.00;;;;;22.22;57.38;101315.88;5058224;28;45379;-60
2021/07/15 09:02:32;;;;;;;;;3.75;3.75;;;;;22.15;57.20;101297.44;5058384;28;45586;-60
2021/07/15 09:04:57;;;;;;;;;3.00;3.00;;;;;22.21;57.35;101312.34;5056997;28;45290;-61
2021/07/15 09:07:23;;;;;;;;;3.75;3.75;;;;;22.20;57.19;101308.84;5056805;28;45491;-60
2021/07/15 09:09:48;;;;;;;;;3.00;2.75;;;;;22.17;57.34;101302.69;5057514;28;59722;-60
2021/07/15 09:12:14;;;;;;;;;3.00;3.00;;;;;22.20;57.38;101302.66;5058005;28;45419;-61
2021/07/15 09:14:44;;;;;;;;;5.25;3.75;;;;;22.20;57.39;101308.84;5057837;28;45455;-62
2021/07/15 09:17:09;;;;;;;;;3.75;3.75;;;;;22.21;57.27;101309.69;5058259;28;46181;-62
2021/07/15 09:19:37;;;;;;;;;3.00;3.00;;;;;22.22;57.31;101321.19;5058266;28;45338;-61
2021/07/15 09:22:10;;;;;;;;;3.25;3.25;;;;;22.20;57.36;101307.94;5058440;28;45429;-61
2021/07/15 09:24:40;;;;;;;;;4.00;3.00;;;;;22.21;56.77;101309.69;5058631;28;45168;-61
2021/07/15 09:27:26;;;;;;;;;3.00;3.00;;;;;22.19;56.80;101306.22;5058124;28;46339;-61
2021/07/15 09:30:08;;;;;;;;;4.75;3.50;;;;;22.21;57.03;101304.41;5058226;28;45514;-62
2021/07/15 09:32:35;;;;;;;;;2.25;2.25;;;;;22.20;57.01;101307.94;5058228;28;45459;-62
2021/07/15 09:35:07;;;;;;;;;4.50;2.00;;;;;22.21;57.13;101309.69;5040310;28;45468;-61
2021/07/15 09:37:36;;;;;;;;;5.50;3.00;;;;;22.20;57.13;101314.13;5057983;28;46752;-61
2021/07/15 09:40:02;;;;;;;;;2.50;2.00;;;;;22.20;57.20;101308.84;5057893;28;45523;-62
2021/07/15 09:42:28;;;;;;;;;2.75;2.75;;;;;22.20;56.75;101318.53;5057988;28;45388;-62
2021/07/15 09:44:53;;;;;;;;;2.25;2.25;;;;;22.21;57.17;101315.00;5058597;28;45214;-62
2021/07/15 09:47:43;;;;;;;;;2.00;2.00;;;;;22.21;56.90;101315.00;5057306;28;57865;-61
2021/07/15 09:50:15;;;;;;;;;3.25;2.00;;;;;22.22;56.83;101318.53;5057955;28;45443;-61
2021/07/15 09:52:40;;;;;;;;;1.75;1.75;;;;;22.21;56.95;101315.00;5058080;28;45245;-62
2021/07/15 09:55:24;;;;;;;;;4.00;3.00;;;;;22.20;57.06;101315.88;5057902;28;49789;-62
2021/07/15 09:58:03;;;;;;;;;2.25;2.25;;;;;22.21;56.85;101328.22;5057507;28;46263;-61
2021/07/15 10:00:36;;;;;;;;;3.25;3.25;;;;;22.22;56.86;101326.47;5057663;28;45291;-62
2021/07/15 10:03:02;;;;;;;;;3.00;3.00;;;;;22.21;57.03;101330.88;5057857;28;45211;-62
2021/07/15 10:05:27;;;;;;;;;2.00;2.00;;;;;22.22;57.01;101321.19;5057948;28;45408;-62
2021/07/15 10:08:03;;;;;;;;;4.75;3.00;;;;;22.23;56.99;101320.25;5039669;28;46882;-61
2021/07/15 10:10:29;;;;;;;;;2.00;2.00;;;;;22.22;56.65;101322.03;5057564;28;45341;-62
2021/07/15 10:12:55;;;;;;;;;2.25;2.25;;;;;22.22;56.42;101315.88;5057211;28;54476;-62
2021/07/15 10:15:20;;;;;;;;;2.75;2.75;;;;;22.23;56.66;101314.97;5040031;28;45796;-62
2021/07/15 10:17:46;;;;;;;;;2.25;2.25;;;;;22.23;56.71;101312.31;5057188;28;45982;-62
2021/07/15 10:20:15;;;;;;;;;4.00;2.75;;;;;22.24;56.37;101311.44;5057317;28;45415;-62
2021/07/15 10:22:41;;;;;;;;;3.25;3.00;;;;;22.24;56.82;101309.66;5057799;28;45377;-61
2021/07/15 10:25:15;;;;;;;;;3.00;3.00;;;;;22.25;56.39;101314.06;5057683;28;45471;-62
2021/07/15 10:27:40;;;;;;;;;3.75;3.00;;;;;22.24;56.78;101320.22;5039150;28;46417;-62
2021/07/15 10:30:07;;;;;;;;;3.00;3.00;;;;;22.24;56.85;101314.06;5039030;28;57508;-62
2021/07/15 10:32:34;;;;;;;;;3.75;3.75;;;;;22.24;57.09;101317.59;5057585;28;45437;-62
2021/07/15 10:34:59;;;;;;;;;3.00;2.00;;;;;22.24;56.77;101320.22;5057650;28;45397;-62
2021/07/15 10:37:25;;;;;;;;;2.50;2.50;;;;;22.24;56.72;101322.03;5039314;28;46025;-62
2021/07/15 10:39:50;;;;;;;;;2.25;2.25;;;;;22.25;57.04;101323.78;5038999;28;45558;-62
2021/07/15 10:42:16;;;;;;;;;3.00;3.00;;;;;22.24;56.57;101322.88;5038883;28;53114;-62
2021/07/15 10:44:41;;;;;;;;;2.00;2.00;;;;;22.26;56.92;101329.03;5022327;28;53948;-62
2021/07/15 10:47:07;;;;;;;;;2.50;2.50;;;;;22.27;57.00;101321.97;5055005;28;46992;-61
2021/07/15 10:49:33;;;;;;;;;3.00;3.00;;;;;22.27;57.12;101325.50;5036775;28;59201;-61
2021/07/15 10:52:01;;;;;;;;;3.00;3.00;;;;;22.28;57.05;101318.44;5036965;28;45568;-61
2021/07/15 10:54:26;;;;;;;;;2.00;2.00;;;;;22.29;57.04;101329.00;5019682;28;45316;-62
2021/07/15 10:56:52;;;;;;;;;3.25;2.50;;;;;22.30;56.98;101319.28;5002387;28;50623;-62
2021/07/15 10:59:27;;;;;;;;;3.50;3.00;;;;;22.31;56.78;101329.84;5036685;28;45381;-62
2021/07/15 11:01:59;;;;;;;;;3.00;3.00;;;;;22.31;57.09;101324.56;5036805;28;45397;-62
2021/07/15 11:04:38;;;;;;;;;2.75;2.75;;;;;22.32;57.13;101323.63;5037082;28;45413;-62
2021/07/15 11:07:20;;;;;;;;;2.50;2.50;;;;;22.34;57.09;101323.69;5036100;28;46417;-64
2021/07/15 11:09:46;;;;;;;;;2.00;2.00;;;;;22.34;56.91;101334.28;5036691;28;45316;-63
2021/07/15 11:12:24;;;;;;;;;4.00;4.00;;;;;22.35;56.86;101333.34;5036821;28;45281;-64
2021/07/15 11:14:56;;;;;;;;;2.00;2.00;;;;;22.35;56.77;101328.94;5036593;28;45404;-66
2021/07/15 11:17:21;;;;;;;;;2.50;2.50;;;;;22.36;56.69;101317.44;5003077;28;46312;-63
2021/07/15 11:19:55;;;;;;;;;2.00;2.00;;;;;22.38;57.08;101327.13;5036531;28;45520;-63
2021/07/15 11:22:39;;;;;;;;;2.25;2.25;;;;;22.40;57.20;101328.00;5036648;28;45259;-64
2021/07/15 11:25:11;;;;;;;;;2.75;2.75;;;;;22.42;57.03;101323.53;5036912;28;45302;-60
2021/07/15 11:27:44;;;;;;;;;3.00;3.00;;;;;22.43;56.94;101320.00;5036474;28;47151;-63
2021/07/15 11:30:12;;;;;;;;;3.00;3.00;;;;;22.44;57.45;101325.28;5039755;28;45330;-62